sensor_id;sensor_type;location;lat;lon;timestamp;P1;durP1;ratioP1;P2;durP2;ratioP2
66478;SDS011;53294;47.912;13.526;2022-08-19T00:02:00;6.63;;;4.95;;
66478;SDS011;53294;47.912;13.526;2022-08-19T00:04:28;6.68;;;4.93;;
66478;SDS011;53294;47.912;13.526;2022-08-19T00:06:59;6.68;;;5.25;;
66478;SDS011;53294;47.912;13.526;2022-08-19T00:09:26;7.10;;;5.13;;
66478;SDS011;53294;47.912;13.526;2022-08-19T00:11:53;7.05;;;4.88;;
66478;SDS011;53294;47.912;13.526;2022-08-19T00:14:23;7.20;;;4.78;;
66478;SDS011;53294;47.912;13.526;2022-08-19T00:16:51;6.15;;;5.05;;
66478;SDS011;53294;47.912;13.526;2022-08-19T00:19:21;9.75;;;5.28;;
66478;SDS011;53294;47.912;13.526;2022-08-19T00:21:49;6.38;;;5.47;;
66478;SDS011;53294;47.912;13.526;2022-08-19T00:24:16;7.22;;;5.78;;
66478;SDS011;53294;47.912;13.526;2022-08-19T00:26:43;6.60;;;5.30;;
66478;SDS011;53294;47.912;13.526;2022-08-19T00:29:12;6.75;;;4.85;;
66478;SDS011;53294;47.912;13.526;2022-08-19T00:31:41;7.18;;;5.22;;
66478;SDS011;53294;47.912;13.526;2022-08-19T00:34:09;6.13;;;5.10;;
66478;SDS011;53294;47.912;13.526;2022-08-19T00:36:38;7.05;;;4.75;;
66478;SDS011;53294;47.912;13.526;2022-08-19T00:39:05;5.65;;;4.40;;
66478;SDS011;53294;47.912;13.526;2022-08-19T00:41:32;7.30;;;5.50;;
66478;SDS011;53294;47.912;13.526;2022-08-19T00:44:08;7.70;;;5.60;;
66478;SDS011;53294;47.912;13.526;2022-08-19T00:46:42;7.53;;;5.15;;
66478;SDS011;53294;47.912;13.526;2022-08-19T00:49:23;6.53;;;4.68;;
66478;SDS011;53294;47.912;13.526;2022-08-19T00:54:35;6.80;;;4.85;;
66478;SDS011;53294;47.912;13.526;2022-08-19T00:57:04;6.18;;;4.45;;
66478;SDS011;53294;47.912;13.526;2022-08-19T00:59:35;6.38;;;4.88;;
66478;SDS011;53294;47.912;13.526;2022-08-19T01:02:25;5.80;;;4.65;;
66478;SDS011;53294;47.912;13.526;2022-08-19T01:04:53;5.47;;;4.40;;
66478;SDS011;53294;47.912;13.526;2022-08-19T01:07:21;7.30;;;4.60;;
66478;SDS011;53294;47.912;13.526;2022-08-19T01:09:49;6.78;;;4.85;;
66478;SDS011;53294;47.912;13.526;2022-08-19T01:12:16;6.97;;;5.25;;
66478;SDS011;53294;47.912;13.526;2022-08-19T01:14:45;5.95;;;4.50;;
66478;SDS011;53294;47.912;13.526;2022-08-19T01:17:12;6.55;;;4.90;;
66478;SDS011;53294;47.912;13.526;2022-08-19T01:19:41;7.88;;;5.35;;
66478;SDS011;53294;47.912;13.526;2022-08-19T01:22:13;6.25;;;4.85;;
66478;SDS011;53294;47.912;13.526;2022-08-19T01:24:42;7.38;;;4.93;;
66478;SDS011;53294;47.912;13.526;2022-08-19T01:27:15;6.50;;;4.85;;
66478;SDS011;53294;47.912;13.526;2022-08-19T01:29:43;6.45;;;4.78;;
66478;SDS011;53294;47.912;13.526;2022-08-19T01:32:12;6.25;;;4.45;;
66478;SDS011;53294;47.912;13.526;2022-08-19T01:34:59;5.43;;;4.53;;
66478;SDS011;53294;47.912;13.526;2022-08-19T01:37:28;6.10;;;4.20;;
66478;SDS011;53294;47.912;13.526;2022-08-19T01:39:55;6.75;;;5.03;;
66478;SDS011;53294;47.912;13.526;2022-08-19T01:42:22;6.60;;;4.82;;
66478;SDS011;53294;47.912;13.526;2022-08-19T01:44:56;6.35;;;4.90;;
66478;SDS011;53294;47.912;13.526;2022-08-19T01:47:23;7.63;;;5.05;;
66478;SDS011;53294;47.912;13.526;2022-08-19T01:49:50;6.22;;;4.95;;
66478;SDS011;53294;47.912;13.526;2022-08-19T01:52:17;6.28;;;4.93;;
66478;SDS011;53294;47.912;13.526;2022-08-19T01:54:43;8.85;;;5.38;;
66478;SDS011;53294;47.912;13.526;2022-08-19T01:57:11;8.60;;;5.88;;
66478;SDS011;53294;47.912;13.526;2022-08-19T01:59:40;8.88;;;6.55;;
66478;SDS011;53294;47.912;13.526;2022-08-19T02:02:09;6.90;;;6.03;;
66478;SDS011;53294;47.912;13.526;2022-08-19T02:04:36;6.80;;;5.80;;
66478;SDS011;53294;47.912;13.526;2022-08-19T02:07:04;8.82;;;5.75;;
66478;SDS011;53294;47.912;13.526;2022-08-19T02:09:32;6.97;;;5.40;;
66478;SDS011;53294;47.912;13.526;2022-08-19T02:11:59;7.07;;;5.70;;
66478;SDS011;53294;47.912;13.526;2022-08-19T02:14:26;7.82;;;5.97;;
66478;SDS011;53294;47.912;13.526;2022-08-19T02:16:53;6.40;;;5.25;;
66478;SDS011;53294;47.912;13.526;2022-08-19T02:19:19;7.57;;;6.00;;
66478;SDS011;53294;47.912;13.526;2022-08-19T02:21:46;7.07;;;6.03;;
66478;SDS011;53294;47.912;13.526;2022-08-19T02:24:13;5.45;;;4.53;;
66478;SDS011;53294;47.912;13.526;2022-08-19T02:26:40;6.47;;;4.20;;
66478;SDS011;53294;47.912;13.526;2022-08-19T02:29:07;5.78;;;4.50;;
66478;SDS011;53294;47.912;13.526;2022-08-19T02:31:33;8.07;;;5.03;;
66478;SDS011;53294;47.912;13.526;2022-08-19T02:34:00;7.72;;;5.10;;
66478;SDS011;53294;47.912;13.526;2022-08-19T02:36:27;9.10;;;7.55;;
66478;SDS011;53294;47.912;13.526;2022-08-19T02:38:55;9.43;;;7.60;;
66478;SDS011;53294;47.912;13.526;2022-08-19T02:41:23;8.23;;;7.38;;
66478;SDS011;53294;47.912;13.526;2022-08-19T02:43:54;9.18;;;7.03;;
66478;SDS011;53294;47.912;13.526;2022-08-19T02:46:44;9.20;;;7.45;;
66478;SDS011;53294;47.912;13.526;2022-08-19T02:49:12;11.45;;;8.75;;
66478;SDS011;53294;47.912;13.526;2022-08-19T02:51:43;9.98;;;7.88;;
66478;SDS011;53294;47.912;13.526;2022-08-19T02:54:11;10.13;;;7.70;;
66478;SDS011;53294;47.912;13.526;2022-08-19T02:56:40;10.32;;;7.40;;
66478;SDS011;53294;47.912;13.526;2022-08-19T02:59:09;11.73;;;9.75;;
66478;SDS011;53294;47.912;13.526;2022-08-19T03:01:36;10.88;;;9.15;;
66478;SDS011;53294;47.912;13.526;2022-08-19T03:04:06;12.27;;;9.07;;
66478;SDS011;53294;47.912;13.526;2022-08-19T03:06:38;13.70;;;9.95;;
66478;SDS011;53294;47.912;13.526;2022-08-19T03:09:07;11.63;;;10.10;;
66478;SDS011;53294;47.912;13.526;2022-08-19T03:11:34;10.85;;;8.55;;
66478;SDS011;53294;47.912;13.526;2022-08-19T03:14:01;10.45;;;9.32;;
66478;SDS011;53294;47.912;13.526;2022-08-19T03:16:31;11.80;;;8.60;;
66478;SDS011;53294;47.912;13.526;2022-08-19T03:19:00;13.93;;;10.60;;
66478;SDS011;53294;47.912;13.526;2022-08-19T03:21:31;11.40;;;9.57;;
66478;SDS011;53294;47.912;13.526;2022-08-19T03:24:04;10.93;;;8.48;;
66478;SDS011;53294;47.912;13.526;2022-08-19T03:26:34;12.82;;;9.45;;
66478;SDS011;53294;47.912;13.526;2022-08-19T03:29:06;10.75;;;9.55;;
66478;SDS011;53294;47.912;13.526;2022-08-19T03:31:39;11.13;;;9.70;;
66478;SDS011;53294;47.912;13.526;2022-08-19T03:34:23;13.40;;;10.32;;
66478;SDS011;53294;47.912;13.526;2022-08-19T03:36:55;12.90;;;10.65;;
66478;SDS011;53294;47.912;13.526;2022-08-19T03:39:25;11.93;;;9.60;;
66478;SDS011;53294;47.912;13.526;2022-08-19T03:41:53;11.45;;;9.43;;
66478;SDS011;53294;47.912;13.526;2022-08-19T03:44:43;12.57;;;9.60;;
66478;SDS011;53294;47.912;13.526;2022-08-19T03:47:11;10.63;;;9.30;;
66478;SDS011;53294;47.912;13.526;2022-08-19T03:49:42;13.38;;;11.00;;
66478;SDS011;53294;47.912;13.526;2022-08-19T03:52:09;12.15;;;10.05;;
66478;SDS011;53294;47.912;13.526;2022-08-19T03:54:36;11.43;;;8.80;;
66478;SDS011;53294;47.912;13.526;2022-08-19T03:57:04;10.30;;;8.77;;
66478;SDS011;53294;47.912;13.526;2022-08-19T03:59:33;11.32;;;9.15;;
66478;SDS011;53294;47.912;13.526;2022-08-19T04:02:02;9.68;;;7.57;;
66478;SDS011;53294;47.912;13.526;2022-08-19T04:07:02;10.40;;;7.50;;
66478;SDS011;53294;47.912;13.526;2022-08-19T04:09:29;8.43;;;7.53;;
66478;SDS011;53294;47.912;13.526;2022-08-19T04:11:56;9.30;;;7.45;;
66478;SDS011;53294;47.912;13.526;2022-08-19T04:14:25;8.25;;;7.32;;
66478;SDS011;53294;47.912;13.526;2022-08-19T04:16:55;8.32;;;7.45;;
66478;SDS011;53294;47.912;13.526;2022-08-19T04:19:23;9.55;;;8.15;;
66478;SDS011;53294;47.912;13.526;2022-08-19T04:21:51;11.05;;;9.05;;
66478;SDS011;53294;47.912;13.526;2022-08-19T04:24:20;10.05;;;8.20;;
66478;SDS011;53294;47.912;13.526;2022-08-19T04:26:48;11.50;;;8.80;;
66478;SDS011;53294;47.912;13.526;2022-08-19T04:29:17;8.10;;;6.75;;
66478;SDS011;53294;47.912;13.526;2022-08-19T04:31:48;10.10;;;7.55;;
66478;SDS011;53294;47.912;13.526;2022-08-19T04:34:17;10.88;;;8.30;;
66478;SDS011;53294;47.912;13.526;2022-08-19T04:36:48;13.13;;;9.40;;
66478;SDS011;53294;47.912;13.526;2022-08-19T04:39:18;11.63;;;8.27;;
66478;SDS011;53294;47.912;13.526;2022-08-19T04:41:48;11.95;;;9.52;;
66478;SDS011;53294;47.912;13.526;2022-08-19T04:44:34;11.38;;;9.13;;
66478;SDS011;53294;47.912;13.526;2022-08-19T04:47:11;10.88;;;8.35;;
66478;SDS011;53294;47.912;13.526;2022-08-19T04:49:38;9.90;;;7.38;;
66478;SDS011;53294;47.912;13.526;2022-08-19T04:52:05;9.20;;;8.07;;
66478;SDS011;53294;47.912;13.526;2022-08-19T04:54:31;10.20;;;8.52;;
66478;SDS011;53294;47.912;13.526;2022-08-19T04:57:04;9.27;;;7.38;;
66478;SDS011;53294;47.912;13.526;2022-08-19T04:59:34;9.43;;;7.40;;
66478;SDS011;53294;47.912;13.526;2022-08-19T05:02:01;9.63;;;7.70;;
66478;SDS011;53294;47.912;13.526;2022-08-19T05:04:29;11.45;;;9.18;;
66478;SDS011;53294;47.912;13.526;2022-08-19T05:06:58;10.30;;;8.50;;
66478;SDS011;53294;47.912;13.526;2022-08-19T05:09:27;10.52;;;8.23;;
66478;SDS011;53294;47.912;13.526;2022-08-19T05:12:15;10.20;;;8.70;;
66478;SDS011;53294;47.912;13.526;2022-08-19T05:14:43;12.30;;;9.13;;
66478;SDS011;53294;47.912;13.526;2022-08-19T05:17:11;11.23;;;9.15;;
66478;SDS011;53294;47.912;13.526;2022-08-19T05:19:53;12.20;;;10.25;;
66478;SDS011;53294;47.912;13.526;2022-08-19T05:22:40;13.43;;;10.13;;
66478;SDS011;53294;47.912;13.526;2022-08-19T05:25:10;11.93;;;10.00;;
66478;SDS011;53294;47.912;13.526;2022-08-19T05:27:40;11.80;;;9.98;;
66478;SDS011;53294;47.912;13.526;2022-08-19T05:30:09;12.45;;;9.98;;
66478;SDS011;53294;47.912;13.526;2022-08-19T05:32:38;14.13;;;10.52;;
66478;SDS011;53294;47.912;13.526;2022-08-19T05:35:05;14.60;;;10.57;;
66478;SDS011;53294;47.912;13.526;2022-08-19T05:37:32;9.68;;;8.13;;
66478;SDS011;53294;47.912;13.526;2022-08-19T05:39:59;11.93;;;9.55;;
66478;SDS011;53294;47.912;13.526;2022-08-19T05:42:26;12.77;;;10.48;;
66478;SDS011;53294;47.912;13.526;2022-08-19T05:44:53;11.60;;;9.52;;
66478;SDS011;53294;47.912;13.526;2022-08-19T05:47:19;14.05;;;10.73;;
66478;SDS011;53294;47.912;13.526;2022-08-19T05:49:47;15.80;;;11.52;;
66478;SDS011;53294;47.912;13.526;2022-08-19T05:52:16;14.73;;;12.05;;
66478;SDS011;53294;47.912;13.526;2022-08-19T05:54:44;15.32;;;11.70;;
66478;SDS011;53294;47.912;13.526;2022-08-19T05:57:17;13.50;;;11.23;;
66478;SDS011;53294;47.912;13.526;2022-08-19T05:59:45;13.18;;;11.45;;
66478;SDS011;53294;47.912;13.526;2022-08-19T06:02:23;14.15;;;11.00;;
66478;SDS011;53294;47.912;13.526;2022-08-19T06:04:49;14.82;;;10.98;;
66478;SDS011;53294;47.912;13.526;2022-08-19T06:07:16;15.32;;;12.68;;
66478;SDS011;53294;47.912;13.526;2022-08-19T06:09:43;15.15;;;12.45;;
66478;SDS011;53294;47.912;13.526;2022-08-19T06:12:26;14.43;;;12.18;;
66478;SDS011;53294;47.912;13.526;2022-08-19T06:14:56;15.25;;;12.80;;
66478;SDS011;53294;47.912;13.526;2022-08-19T06:17:27;13.98;;;11.73;;
66478;SDS011;53294;47.912;13.526;2022-08-19T06:19:57;14.25;;;12.18;;
66478;SDS011;53294;47.912;13.526;2022-08-19T06:22:24;12.73;;;10.20;;
66478;SDS011;53294;47.912;13.526;2022-08-19T06:24:52;13.73;;;11.27;;
66478;SDS011;53294;47.912;13.526;2022-08-19T06:27:20;12.55;;;10.55;;
66478;SDS011;53294;47.912;13.526;2022-08-19T06:29:48;14.05;;;11.43;;
66478;SDS011;53294;47.912;13.526;2022-08-19T06:32:16;12.52;;;10.55;;
66478;SDS011;53294;47.912;13.526;2022-08-19T06:34:44;12.65;;;10.32;;
66478;SDS011;53294;47.912;13.526;2022-08-19T06:37:12;12.38;;;10.52;;
66478;SDS011;53294;47.912;13.526;2022-08-19T06:39:40;12.80;;;10.25;;
66478;SDS011;53294;47.912;13.526;2022-08-19T06:42:09;14.07;;;11.07;;
66478;SDS011;53294;47.912;13.526;2022-08-19T06:44:40;11.65;;;9.93;;
66478;SDS011;53294;47.912;13.526;2022-08-19T06:47:14;14.45;;;11.02;;
66478;SDS011;53294;47.912;13.526;2022-08-19T06:49:52;14.35;;;10.73;;
66478;SDS011;53294;47.912;13.526;2022-08-19T06:52:26;13.52;;;11.40;;
66478;SDS011;53294;47.912;13.526;2022-08-19T06:54:53;12.38;;;10.32;;
66478;SDS011;53294;47.912;13.526;2022-08-19T06:57:25;13.25;;;9.88;;
66478;SDS011;53294;47.912;13.526;2022-08-19T06:59:52;11.45;;;10.02;;
66478;SDS011;53294;47.912;13.526;2022-08-19T07:02:19;12.45;;;10.02;;
66478;SDS011;53294;47.912;13.526;2022-08-19T07:04:47;9.98;;;8.00;;
66478;SDS011;53294;47.912;13.526;2022-08-19T07:07:18;9.52;;;8.15;;
66478;SDS011;53294;47.912;13.526;2022-08-19T07:09:47;11.38;;;8.90;;
66478;SDS011;53294;47.912;13.526;2022-08-19T07:12:27;10.52;;;8.68;;
66478;SDS011;53294;47.912;13.526;2022-08-19T07:14:56;11.98;;;9.88;;
66478;SDS011;53294;47.912;13.526;2022-08-19T07:17:24;13.55;;;10.90;;
66478;SDS011;53294;47.912;13.526;2022-08-19T07:19:52;9.57;;;8.55;;
66478;SDS011;53294;47.912;13.526;2022-08-19T07:22:19;9.80;;;7.65;;
66478;SDS011;53294;47.912;13.526;2022-08-19T07:24:50;13.10;;;10.20;;
66478;SDS011;53294;47.912;13.526;2022-08-19T07:27:18;12.90;;;10.10;;
66478;SDS011;53294;47.912;13.526;2022-08-19T07:29:50;13.03;;;10.83;;
66478;SDS011;53294;47.912;13.526;2022-08-19T07:32:22;11.95;;;10.00;;
66478;SDS011;53294;47.912;13.526;2022-08-19T07:34:52;13.63;;;10.95;;
66478;SDS011;53294;47.912;13.526;2022-08-19T07:37:18;10.00;;;8.70;;
66478;SDS011;53294;47.912;13.526;2022-08-19T07:39:45;12.45;;;9.82;;
66478;SDS011;53294;47.912;13.526;2022-08-19T07:42:12;12.88;;;11.48;;
66478;SDS011;53294;47.912;13.526;2022-08-19T07:44:40;10.23;;;8.38;;
66478;SDS011;53294;47.912;13.526;2022-08-19T07:47:15;12.77;;;10.68;;
66478;SDS011;53294;47.912;13.526;2022-08-19T07:50:03;12.77;;;10.88;;
66478;SDS011;53294;47.912;13.526;2022-08-19T07:52:33;15.30;;;11.23;;
66478;SDS011;53294;47.912;13.526;2022-08-19T07:55:02;14.50;;;11.60;;
66478;SDS011;53294;47.912;13.526;2022-08-19T07:57:30;13.70;;;10.90;;
66478;SDS011;53294;47.912;13.526;2022-08-19T07:59:57;12.10;;;10.70;;
66478;SDS011;53294;47.912;13.526;2022-08-19T08:02:25;13.80;;;11.73;;
66478;SDS011;53294;47.912;13.526;2022-08-19T08:04:52;12.38;;;9.50;;
66478;SDS011;53294;47.912;13.526;2022-08-19T08:07:38;13.68;;;9.77;;
66478;SDS011;53294;47.912;13.526;2022-08-19T08:10:24;12.65;;;10.43;;
66478;SDS011;53294;47.912;13.526;2022-08-19T08:12:51;9.32;;;7.70;;
66478;SDS011;53294;47.912;13.526;2022-08-19T08:15:35;11.70;;;9.57;;
66478;SDS011;53294;47.912;13.526;2022-08-19T08:18:08;12.32;;;9.50;;
66478;SDS011;53294;47.912;13.526;2022-08-19T08:20:36;11.65;;;10.00;;
66478;SDS011;53294;47.912;13.526;2022-08-19T08:23:03;14.30;;;10.77;;
66478;SDS011;53294;47.912;13.526;2022-08-19T08:25:48;11.85;;;10.23;;
66478;SDS011;53294;47.912;13.526;2022-08-19T08:28:16;9.50;;;7.90;;
66478;SDS011;53294;47.912;13.526;2022-08-19T08:30:46;14.73;;;11.77;;
66478;SDS011;53294;47.912;13.526;2022-08-19T08:33:20;11.75;;;10.43;;
66478;SDS011;53294;47.912;13.526;2022-08-19T08:36:08;11.82;;;9.63;;
66478;SDS011;53294;47.912;13.526;2022-08-19T08:38:35;13.98;;;10.88;;
66478;SDS011;53294;47.912;13.526;2022-08-19T08:41:13;13.00;;;11.60;;
66478;SDS011;53294;47.912;13.526;2022-08-19T08:43:46;13.48;;;11.88;;
66478;SDS011;53294;47.912;13.526;2022-08-19T08:46:16;14.40;;;11.52;;
66478;SDS011;53294;47.912;13.526;2022-08-19T08:48:59;13.47;;;10.77;;
66478;SDS011;53294;47.912;13.526;2022-08-19T08:51:38;13.75;;;10.80;;
66478;SDS011;53294;47.912;13.526;2022-08-19T08:54:13;12.35;;;10.77;;
66478;SDS011;53294;47.912;13.526;2022-08-19T08:56:44;12.80;;;10.70;;
66478;SDS011;53294;47.912;13.526;2022-08-19T09:02:01;11.63;;;9.23;;
66478;SDS011;53294;47.912;13.526;2022-08-19T09:04:28;12.90;;;10.23;;
66478;SDS011;53294;47.912;13.526;2022-08-19T09:09:51;13.40;;;10.82;;
66478;SDS011;53294;47.912;13.526;2022-08-19T09:12:30;10.90;;;8.30;;
66478;SDS011;53294;47.912;13.526;2022-08-19T09:15:12;13.30;;;10.75;;
66478;SDS011;53294;47.912;13.526;2022-08-19T09:17:42;14.60;;;10.95;;
66478;SDS011;53294;47.912;13.526;2022-08-19T09:20:17;11.57;;;10.32;;
66478;SDS011;53294;47.912;13.526;2022-08-19T09:22:46;8.77;;;6.97;;
66478;SDS011;53294;47.912;13.526;2022-08-19T09:25:17;12.10;;;9.95;;
66478;SDS011;53294;47.912;13.526;2022-08-19T09:27:52;12.43;;;10.48;;
66478;SDS011;53294;47.912;13.526;2022-08-19T09:30:29;9.23;;;7.45;;
66478;SDS011;53294;47.912;13.526;2022-08-19T09:32:58;12.50;;;10.88;;
66478;SDS011;53294;47.912;13.526;2022-08-19T09:35:27;13.88;;;12.15;;
66478;SDS011;53294;47.912;13.526;2022-08-19T09:37:56;11.02;;;9.48;;
66478;SDS011;53294;47.912;13.526;2022-08-19T09:40:28;9.80;;;8.30;;
66478;SDS011;53294;47.912;13.526;2022-08-19T09:43:00;10.45;;;9.20;;
66478;SDS011;53294;47.912;13.526;2022-08-19T09:45:38;12.65;;;11.35;;
66478;SDS011;53294;47.912;13.526;2022-08-19T09:48:04;14.23;;;11.18;;
66478;SDS011;53294;47.912;13.526;2022-08-19T09:50:32;13.98;;;11.65;;
66478;SDS011;53294;47.912;13.526;2022-08-19T09:53:01;13.07;;;11.10;;
66478;SDS011;53294;47.912;13.526;2022-08-19T09:55:27;13.35;;;11.43;;
66478;SDS011;53294;47.912;13.526;2022-08-19T09:57:58;13.25;;;10.57;;
66478;SDS011;53294;47.912;13.526;2022-08-19T10:00:25;11.43;;;9.55;;
66478;SDS011;53294;47.912;13.526;2022-08-19T10:02:53;11.30;;;9.57;;
66478;SDS011;53294;47.912;13.526;2022-08-19T10:05:19;6.90;;;6.20;;
66478;SDS011;53294;47.912;13.526;2022-08-19T10:08:07;13.68;;;11.15;;
66478;SDS011;53294;47.912;13.526;2022-08-19T10:10:39;11.48;;;9.60;;
66478;SDS011;53294;47.912;13.526;2022-08-19T10:13:12;11.52;;;10.02;;
66478;SDS011;53294;47.912;13.526;2022-08-19T10:15:40;8.48;;;7.20;;
66478;SDS011;53294;47.912;13.526;2022-08-19T10:18:13;8.48;;;7.57;;
66478;SDS011;53294;47.912;13.526;2022-08-19T10:20:43;10.38;;;9.00;;
66478;SDS011;53294;47.912;13.526;2022-08-19T10:23:17;10.60;;;8.57;;
66478;SDS011;53294;47.912;13.526;2022-08-19T10:25:46;12.10;;;10.60;;
66478;SDS011;53294;47.912;13.526;2022-08-19T10:28:14;12.77;;;11.43;;
66478;SDS011;53294;47.912;13.526;2022-08-19T10:30:44;11.18;;;9.98;;
66478;SDS011;53294;47.912;13.526;2022-08-19T10:33:12;10.00;;;7.65;;
66478;SDS011;53294;47.912;13.526;2022-08-19T10:35:40;9.90;;;8.43;;
66478;SDS011;53294;47.912;13.526;2022-08-19T10:38:21;11.02;;;9.18;;
66478;SDS011;53294;47.912;13.526;2022-08-19T10:40:57;13.02;;;10.75;;
66478;SDS011;53294;47.912;13.526;2022-08-19T10:43:24;12.32;;;9.45;;
66478;SDS011;53294;47.912;13.526;2022-08-19T10:45:52;15.05;;;12.48;;
66478;SDS011;53294;47.912;13.526;2022-08-19T10:48:24;12.40;;;11.10;;
66478;SDS011;53294;47.912;13.526;2022-08-19T10:50:52;9.50;;;8.38;;
66478;SDS011;53294;47.912;13.526;2022-08-19T10:53:48;12.23;;;10.00;;
66478;SDS011;53294;47.912;13.526;2022-08-19T10:56:16;12.82;;;11.10;;
66478;SDS011;53294;47.912;13.526;2022-08-19T10:59:02;13.07;;;11.38;;
66478;SDS011;53294;47.912;13.526;2022-08-19T11:01:30;13.52;;;11.90;;
66478;SDS011;53294;47.912;13.526;2022-08-19T11:04:00;14.10;;;12.30;;
66478;SDS011;53294;47.912;13.526;2022-08-19T11:06:28;13.63;;;12.23;;
66478;SDS011;53294;47.912;13.526;2022-08-19T11:08:57;17.55;;;13.65;;
66478;SDS011;53294;47.912;13.526;2022-08-19T11:11:26;14.95;;;13.05;;
66478;SDS011;53294;47.912;13.526;2022-08-19T11:13:54;12.85;;;11.35;;
66478;SDS011;53294;47.912;13.526;2022-08-19T11:16:22;14.43;;;12.27;;
66478;SDS011;53294;47.912;13.526;2022-08-19T11:18:52;13.82;;;12.32;;
66478;SDS011;53294;47.912;13.526;2022-08-19T11:21:23;14.48;;;12.65;;
66478;SDS011;53294;47.912;13.526;2022-08-19T11:23:53;12.45;;;10.50;;
66478;SDS011;53294;47.912;13.526;2022-08-19T11:26:22;15.02;;;13.35;;
66478;SDS011;53294;47.912;13.526;2022-08-19T11:28:50;15.07;;;13.18;;
66478;SDS011;53294;47.912;13.526;2022-08-19T11:31:26;12.75;;;11.32;;
66478;SDS011;53294;47.912;13.526;2022-08-19T11:33:58;15.82;;;13.07;;
66478;SDS011;53294;47.912;13.526;2022-08-19T11:36:26;14.68;;;13.02;;
66478;SDS011;53294;47.912;13.526;2022-08-19T11:38:53;16.13;;;14.02;;
66478;SDS011;53294;47.912;13.526;2022-08-19T11:41:20;14.43;;;12.90;;
66478;SDS011;53294;47.912;13.526;2022-08-19T11:43:49;15.75;;;14.05;;
66478;SDS011;53294;47.912;13.526;2022-08-19T11:46:19;16.38;;;14.48;;
66478;SDS011;53294;47.912;13.526;2022-08-19T11:48:46;15.15;;;13.00;;
66478;SDS011;53294;47.912;13.526;2022-08-19T11:51:15;18.17;;;15.38;;
66478;SDS011;53294;47.912;13.526;2022-08-19T11:53:45;16.85;;;14.43;;
66478;SDS011;53294;47.912;13.526;2022-08-19T11:56:12;17.17;;;14.23;;
66478;SDS011;53294;47.912;13.526;2022-08-19T11:58:39;16.67;;;13.88;;
66478;SDS011;53294;47.912;13.526;2022-08-19T12:01:08;16.75;;;14.32;;
66478;SDS011;53294;47.912;13.526;2022-08-19T12:03:37;17.75;;;15.23;;
66478;SDS011;53294;47.912;13.526;2022-08-19T12:06:05;16.00;;;13.65;;
66478;SDS011;53294;47.912;13.526;2022-08-19T12:08:33;17.40;;;15.00;;
66478;SDS011;53294;47.912;13.526;2022-08-19T12:11:00;15.52;;;13.80;;
66478;SDS011;53294;47.912;13.526;2022-08-19T12:13:28;17.20;;;14.60;;
66478;SDS011;53294;47.912;13.526;2022-08-19T12:15:56;18.20;;;15.70;;
66478;SDS011;53294;47.912;13.526;2022-08-19T12:18:24;16.85;;;15.05;;
66478;SDS011;53294;47.912;13.526;2022-08-19T12:20:51;18.23;;;15.68;;
66478;SDS011;53294;47.912;13.526;2022-08-19T12:23:20;16.98;;;15.18;;
66478;SDS011;53294;47.912;13.526;2022-08-19T12:25:47;16.83;;;15.02;;
66478;SDS011;53294;47.912;13.526;2022-08-19T12:28:21;17.50;;;15.68;;
66478;SDS011;53294;47.912;13.526;2022-08-19T12:30:50;19.90;;;16.13;;
66478;SDS011;53294;47.912;13.526;2022-08-19T12:33:18;16.80;;;14.63;;
66478;SDS011;53294;47.912;13.526;2022-08-19T12:35:49;16.40;;;14.52;;
66478;SDS011;53294;47.912;13.526;2022-08-19T12:38:17;14.70;;;12.77;;
66478;SDS011;53294;47.912;13.526;2022-08-19T12:40:47;17.20;;;15.40;;
66478;SDS011;53294;47.912;13.526;2022-08-19T12:43:15;17.75;;;15.90;;
66478;SDS011;53294;47.912;13.526;2022-08-19T12:45:42;16.13;;;14.25;;
66478;SDS011;53294;47.912;13.526;2022-08-19T12:48:12;18.10;;;16.02;;
66478;SDS011;53294;47.912;13.526;2022-08-19T12:50:59;18.77;;;16.77;;
66478;SDS011;53294;47.912;13.526;2022-08-19T12:53:31;16.73;;;14.93;;
66478;SDS011;53294;47.912;13.526;2022-08-19T12:55:59;18.25;;;16.27;;
66478;SDS011;53294;47.912;13.526;2022-08-19T12:58:27;16.98;;;15.27;;
66478;SDS011;53294;47.912;13.526;2022-08-19T13:00:55;18.63;;;16.70;;
66478;SDS011;53294;47.912;13.526;2022-08-19T13:03:21;17.45;;;15.32;;
66478;SDS011;53294;47.912;13.526;2022-08-19T13:05:53;17.05;;;15.25;;
66478;SDS011;53294;47.912;13.526;2022-08-19T13:08:20;16.98;;;14.98;;
66478;SDS011;53294;47.912;13.526;2022-08-19T13:10:46;14.63;;;13.13;;
66478;SDS011;53294;47.912;13.526;2022-08-19T13:13:13;15.07;;;13.48;;
66478;SDS011;53294;47.912;13.526;2022-08-19T13:15:40;17.88;;;16.08;;
66478;SDS011;53294;47.912;13.526;2022-08-19T13:18:08;17.42;;;15.70;;
66478;SDS011;53294;47.912;13.526;2022-08-19T13:20:36;16.27;;;14.60;;
66478;SDS011;53294;47.912;13.526;2022-08-19T13:23:04;17.88;;;16.10;;
66478;SDS011;53294;47.912;13.526;2022-08-19T13:25:30;19.10;;;17.10;;
66478;SDS011;53294;47.912;13.526;2022-08-19T13:27:58;17.63;;;15.82;;
66478;SDS011;53294;47.912;13.526;2022-08-19T13:30:25;19.92;;;16.65;;
66478;SDS011;53294;47.912;13.526;2022-08-19T13:33:12;18.13;;;16.23;;
66478;SDS011;53294;47.912;13.526;2022-08-19T13:38:17;14.52;;;12.82;;
66478;SDS011;53294;47.912;13.526;2022-08-19T13:40:47;13.98;;;12.13;;
66478;SDS011;53294;47.912;13.526;2022-08-19T13:43:18;13.75;;;12.27;;
66478;SDS011;53294;47.912;13.526;2022-08-19T13:45:49;13.50;;;11.68;;
66478;SDS011;53294;47.912;13.526;2022-08-19T13:48:20;13.48;;;12.07;;
66478;SDS011;53294;47.912;13.526;2022-08-19T13:50:46;13.63;;;12.07;;
66478;SDS011;53294;47.912;13.526;2022-08-19T13:53:14;15.05;;;12.75;;
66478;SDS011;53294;47.912;13.526;2022-08-19T13:55:42;13.90;;;12.50;;
66478;SDS011;53294;47.912;13.526;2022-08-19T13:58:10;18.85;;;16.38;;
66478;SDS011;53294;47.912;13.526;2022-08-19T14:00:42;16.73;;;15.02;;
66478;SDS011;53294;47.912;13.526;2022-08-19T14:03:10;16.17;;;14.02;;
66478;SDS011;53294;47.912;13.526;2022-08-19T14:05:37;16.13;;;14.23;;
66478;SDS011;53294;47.912;13.526;2022-08-19T14:08:04;16.80;;;15.00;;
66478;SDS011;53294;47.912;13.526;2022-08-19T14:10:31;17.67;;;15.75;;
66478;SDS011;53294;47.912;13.526;2022-08-19T14:13:00;18.58;;;16.58;;
66478;SDS011;53294;47.912;13.526;2022-08-19T14:15:28;18.35;;;16.13;;
66478;SDS011;53294;47.912;13.526;2022-08-19T14:17:56;23.75;;;18.33;;
66478;SDS011;53294;47.912;13.526;2022-08-19T14:20:23;20.45;;;18.25;;
66478;SDS011;53294;47.912;13.526;2022-08-19T14:22:51;20.10;;;17.05;;
66478;SDS011;53294;47.912;13.526;2022-08-19T14:25:20;19.75;;;17.65;;
66478;SDS011;53294;47.912;13.526;2022-08-19T14:27:49;18.67;;;15.63;;
66478;SDS011;53294;47.912;13.526;2022-08-19T14:30:18;19.88;;;16.52;;
66478;SDS011;53294;47.912;13.526;2022-08-19T14:32:55;21.67;;;18.83;;
66478;SDS011;53294;47.912;13.526;2022-08-19T14:35:24;19.52;;;16.63;;
66478;SDS011;53294;47.912;13.526;2022-08-19T14:37:53;18.95;;;16.05;;
66478;SDS011;53294;47.912;13.526;2022-08-19T14:40:22;17.45;;;14.35;;
66478;SDS011;53294;47.912;13.526;2022-08-19T14:42:59;19.70;;;15.70;;
66478;SDS011;53294;47.912;13.526;2022-08-19T14:45:34;18.35;;;15.63;;
66478;SDS011;53294;47.912;13.526;2022-08-19T14:48:03;18.25;;;15.23;;
66478;SDS011;53294;47.912;13.526;2022-08-19T14:50:31;16.50;;;13.80;;